createdAt,value
2018-06-23T00:01:54.311Z,90.30
2018-06-23T00:04:33.664Z,88.60
2018-06-23T00:07:34.522Z,89.00
2018-06-23T00:10:15.475Z,88.90
2018-06-23T00:16:16.986Z,90.60
2018-06-23T00:19:08.570Z,89.30
2018-06-23T00:25:41.955Z,89.80
2018-06-23T00:28:28.780Z,92.40
2018-06-23T00:31:48.524Z,93.80
2018-06-23T00:38:01.727Z,95.40
2018-06-23T00:40:46.399Z,95.50
2018-06-23T00:43:25.810Z,95.70
2018-06-23T00:46:14.099Z,95.80
2018-06-23T00:51:33.929Z,95.90
2018-06-23T00:54:13.379Z,96.10
2018-06-23T00:56:51.732Z,96.20
2018-06-23T00:59:36.880Z,96.50
2018-06-23T01:02:11.293Z,96.80
2018-06-23T01:04:46.547Z,97.10
2018-06-23T01:07:21.080Z,97.50
2018-06-23T01:09:55.283Z,97.50
2018-06-23T01:12:29.515Z,97.60
2018-06-23T01:17:37.451Z,98.00
2018-06-23T01:20:11.676Z,98.40
2018-06-23T01:22:45.896Z,98.70
2018-06-23T01:25:20.095Z,98.70
2018-06-23T01:27:54.288Z,98.90
2018-06-23T01:33:02.215Z,98.90
2018-06-23T01:35:36.462Z,99.30
2018-06-23T01:38:10.720Z,99.50
2018-06-23T01:40:44.950Z,99.40
2018-06-23T01:43:19.180Z,99.60
2018-06-23T01:45:54.459Z,99.50
2018-06-23T01:48:28.663Z,99.80
2018-06-23T01:51:02.857Z,99.90
2018-06-23T01:53:37.091Z,99.90
2018-06-23T01:56:11.291Z,99.90
2018-06-23T01:58:45.540Z,99.90
2018-06-23T02:01:19.780Z,99.90
2018-06-23T02:03:53.978Z,99.90
2018-06-23T02:06:28.600Z,99.90
2018-06-23T02:09:02.936Z,99.90
2018-06-23T02:14:16.510Z,99.90
2018-06-23T02:16:55.934Z,99.90
2018-06-23T02:19:36.272Z,99.90
2018-06-23T02:24:54.572Z,99.90
2018-06-23T02:27:33.919Z,98.90
2018-06-23T02:30:15.668Z,95.90
2018-06-23T02:32:53.862Z,95.40
2018-06-23T02:35:29.226Z,95.10
2018-06-23T02:38:03.417Z,93.60
2018-06-23T02:40:37.607Z,93.20
2018-06-23T02:43:12.850Z,92.30
2018-06-23T02:45:47.073Z,91.50
2018-06-23T02:48:21.304Z,91.40
2018-06-23T02:53:30.300Z,91.30
2018-06-23T02:56:04.525Z,91.60
2018-06-23T02:58:38.738Z,91.90
2018-06-23T03:01:12.923Z,91.90
2018-06-23T03:03:50.202Z,91.80
2018-06-23T03:06:24.503Z,90.80
2018-06-23T03:08:58.711Z,90.90
2018-06-23T03:11:32.931Z,90.60
2018-06-23T03:14:07.152Z,90.90
2018-06-23T03:16:42.442Z,91.30
2018-06-23T03:19:17.683Z,91.00
2018-06-23T03:21:51.936Z,91.30
2018-06-23T03:24:27.155Z,91.30
2018-06-23T03:27:01.366Z,91.40
2018-06-23T03:32:09.879Z,91.60
2018-06-23T03:34:44.124Z,91.70
2018-06-23T03:37:19.357Z,91.80
2018-06-23T03:39:54.604Z,91.00
2018-06-23T03:42:28.807Z,91.80
2018-06-23T03:47:37.863Z,91.40
2018-06-23T03:50:12.111Z,91.50
2018-06-23T03:52:46.353Z,91.00
2018-06-23T03:55:20.567Z,91.30
2018-06-23T03:57:54.855Z,91.90
2018-06-23T04:00:29.023Z,92.30
2018-06-23T04:03:03.239Z,93.10
2018-06-23T04:05:38.215Z,93.20
2018-06-23T04:08:12.464Z,93.60
2018-06-23T04:10:46.784Z,93.00
2018-06-23T04:13:21.076Z,92.70
2018-06-23T04:15:56.293Z,92.80
2018-06-23T04:18:30.533Z,93.20
2018-06-23T04:21:04.754Z,93.10
2018-06-23T04:23:40.004Z,92.50
2018-06-23T04:31:22.692Z,91.90
2018-06-23T04:33:56.977Z,91.70
2018-06-23T04:36:31.189Z,91.10
2018-06-23T04:39:07.541Z,91.60
2018-06-23T04:44:15.504Z,89.70
2018-06-23T04:46:49.741Z,89.20
2018-06-23T04:49:23.943Z,88.90
2018-06-23T04:51:59.175Z,89.80
2018-06-23T04:54:34.032Z,82.20
2018-06-23T04:57:08.768Z,67.60
2018-06-23T04:59:43.579Z,62.20
2018-06-23T05:02:33.247Z,65.10
2018-06-23T05:07:43.056Z,64.00
2018-06-23T05:10:17.840Z,65.10
2018-06-23T05:12:52.640Z,60.90
2018-06-23T05:15:28.446Z,55.60
2018-06-23T05:18:03.207Z,52.90
2018-06-23T05:20:38.984Z,49.90
2018-06-23T05:25:49.035Z,46.50
2018-06-23T05:28:23.832Z,48.80
2018-06-23T05:30:58.622Z,51.40
2018-06-23T05:33:33.392Z,55.70
2018-06-23T05:36:09.179Z,58.60
2018-06-23T05:38:43.915Z,61.70
2018-06-23T05:41:19.688Z,61.60
2018-06-23T05:43:54.422Z,60.80
2018-06-23T05:46:29.199Z,59.90
2018-06-23T05:49:06.048Z,57.40
2018-06-23T05:51:41.824Z,56.10
2018-06-23T05:54:18.632Z,54.00
2018-06-23T05:57:01.072Z,53.80
2018-06-23T05:59:35.889Z,53.60
2018-06-23T06:02:11.138Z,52.10
2018-06-23T06:04:45.980Z,54.10
2018-06-23T06:07:21.734Z,53.30
2018-06-23T06:09:56.507Z,53.40
2018-06-23T06:12:32.332Z,55.50
2018-06-23T06:15:08.151Z,55.90
2018-06-23T06:17:42.894Z,54.60
2018-06-23T06:20:17.728Z,52.20
2018-06-23T06:22:52.541Z,54.00
2018-06-23T06:25:29.413Z,55.70
2018-06-23T06:28:04.191Z,57.20
2018-06-23T06:30:38.969Z,58.40
2018-06-23T06:33:13.761Z,59.70
2018-06-23T06:35:50.407Z,58.90
2018-06-23T06:38:26.383Z,58.20
2018-06-23T06:41:01.137Z,58.90
2018-06-23T06:43:35.915Z,60.60
2018-06-23T06:48:44.966Z,64.20
2018-06-23T06:53:54.060Z,66.50
2018-06-23T06:56:32.524Z,65.50
2018-06-23T06:59:16.560Z,67.20
2018-06-23T07:01:53.211Z,68.10
2018-06-23T07:04:34.706Z,69.30
2018-06-23T07:13:01.873Z,65.90
2018-06-23T07:15:36.763Z,65.20
2018-06-23T07:20:49.919Z,63.30
2018-06-23T07:26:35.105Z,58.00
2018-06-23T07:29:09.955Z,55.70
2018-06-23T07:31:45.750Z,56.30
2018-06-23T07:34:20.537Z,59.30
2018-06-23T07:36:55.504Z,60.80
2018-06-23T07:42:04.932Z,61.30
2018-06-23T07:44:40.752Z,62.80
2018-06-23T07:47:15.582Z,59.40
2018-06-23T07:49:50.428Z,58.30
2018-06-23T07:52:25.267Z,57.70
2018-06-23T07:55:00.106Z,58.00
2018-06-23T07:57:34.856Z,58.60
2018-06-23T08:00:09.617Z,56.30
2018-06-23T08:05:21.439Z,56.60
2018-06-23T08:07:56.213Z,58.30
2018-06-23T08:10:30.965Z,59.30
2018-06-23T08:13:05.786Z,61.30
2018-06-23T08:15:40.564Z,63.20
2018-06-23T08:18:16.517Z,57.40
2018-06-23T08:20:51.424Z,57.60
2018-06-23T08:23:26.211Z,57.00
2018-06-23T08:26:01.000Z,57.60
2018-06-23T08:28:37.326Z,57.80
2018-06-23T08:31:12.128Z,58.00
2018-06-23T08:33:46.928Z,58.30
2018-06-23T08:36:21.735Z,57.80
2018-06-23T08:38:56.531Z,55.90
2018-06-23T08:41:32.296Z,54.40
2018-06-23T08:44:07.080Z,55.60
2018-06-23T08:46:41.880Z,56.60
2018-06-23T08:49:16.732Z,56.50
2018-06-23T08:51:51.639Z,56.70
2018-06-23T08:54:26.583Z,58.30
2018-06-23T09:02:34.353Z,55.00
2018-06-23T09:05:10.610Z,54.70
2018-06-23T09:07:45.446Z,54.60
2018-06-23T09:10:25.468Z,55.40
2018-06-23T09:13:03.040Z,56.90
2018-06-23T09:15:41.483Z,57.10
2018-06-23T09:18:31.674Z,54.30
2018-06-23T09:21:18.359Z,50.90
2018-06-23T09:26:28.449Z,52.20
2018-06-23T09:29:11.941Z,49.60
2018-06-23T09:31:47.827Z,49.20
2018-06-23T09:34:22.669Z,49.50
2018-06-23T09:36:58.175Z,49.30
2018-06-23T09:42:07.280Z,49.40
2018-06-23T09:44:42.038Z,49.70
2018-06-23T09:47:18.258Z,52.30
2018-06-23T09:49:53.006Z,51.90
2018-06-23T09:52:27.795Z,53.50
2018-06-23T09:55:02.604Z,54.20
2018-06-23T09:57:37.359Z,54.80
2018-06-23T10:00:16.375Z,55.10
2018-06-23T10:03:32.752Z,52.40
2018-06-23T10:06:07.865Z,51.20
2018-06-23T10:08:43.673Z,53.70
2018-06-23T10:11:18.465Z,52.50
2018-06-23T10:13:53.269Z,51.90
2018-06-23T10:16:28.087Z,51.10
2018-06-23T10:19:02.939Z,51.20
2018-06-23T10:24:12.238Z,53.20
2018-06-23T10:29:21.328Z,54.40
2018-06-23T10:31:56.113Z,51.60
2018-06-23T10:34:30.883Z,50.30
2018-06-23T10:37:06.040Z,51.00
2018-06-23T10:39:40.909Z,48.30
2018-06-23T10:42:16.688Z,51.00
2018-06-23T10:44:52.516Z,50.60
2018-06-23T10:47:27.277Z,52.50
2018-06-23T10:55:10.437Z,50.50
2018-06-23T11:00:19.643Z,50.70
2018-06-23T11:03:01.220Z,50.90
2018-06-23T11:05:35.979Z,51.30
2018-06-23T11:08:10.703Z,52.50
2018-06-23T11:10:48.707Z,52.60
2018-06-23T11:13:23.532Z,53.90
2018-06-23T11:15:58.231Z,55.00
2018-06-23T11:18:34.066Z,56.30
2018-06-23T11:21:08.789Z,55.30
2018-06-23T11:23:44.547Z,55.50
2018-06-23T11:26:19.308Z,56.20
2018-06-23T11:28:55.040Z,57.80
2018-06-23T11:31:29.785Z,58.10
2018-06-23T11:34:04.640Z,59.00
2018-06-23T11:39:14.604Z,60.50
2018-06-23T11:41:49.347Z,61.30
2018-06-23T11:44:25.082Z,59.90
2018-06-23T11:49:35.120Z,58.60
2018-06-23T11:52:09.900Z,58.70
2018-06-23T11:54:44.648Z,57.70
2018-06-23T11:57:19.452Z,57.40
2018-06-23T11:59:54.208Z,55.60
2018-06-23T12:02:28.984Z,55.00
2018-06-23T12:05:03.768Z,54.40
2018-06-23T12:07:38.480Z,53.50
2018-06-23T12:10:13.229Z,53.00
2018-06-23T12:12:47.904Z,53.20
2018-06-23T12:15:22.666Z,54.10
2018-06-23T12:17:57.429Z,56.20
2018-06-23T12:23:06.609Z,55.70
2018-06-23T12:25:42.350Z,52.40
2018-06-23T12:28:17.069Z,53.80
2018-06-23T12:30:51.819Z,54.10
2018-06-23T12:33:26.600Z,55.20
2018-06-23T12:36:01.340Z,55.50
2018-06-23T12:41:10.276Z,56.80
2018-06-23T12:43:45.045Z,56.80
2018-06-23T12:46:19.769Z,56.70
2018-06-23T12:48:54.788Z,57.30
2018-06-23T12:51:32.761Z,58.30
2018-06-23T12:56:50.084Z,57.10
2018-06-23T12:59:24.800Z,57.40
2018-06-23T13:01:59.583Z,58.10
2018-06-23T13:04:34.287Z,56.80
2018-06-23T13:07:09.029Z,57.00
2018-06-23T13:09:44.745Z,56.70
2018-06-23T13:14:53.750Z,56.00
2018-06-23T13:17:28.520Z,56.80
2018-06-23T13:20:04.351Z,58.70
2018-06-23T13:22:39.132Z,59.10
2018-06-23T13:25:13.891Z,57.00
2018-06-23T13:27:48.695Z,57.90
2018-06-23T13:30:23.438Z,59.00
2018-06-23T13:32:58.223Z,59.30
2018-06-23T13:35:32.899Z,58.20
2018-06-23T13:38:07.669Z,57.00
2018-06-23T13:40:42.413Z,58.00
2018-06-23T13:43:17.477Z,58.80
2018-06-23T13:45:52.199Z,58.20
2018-06-23T13:48:26.921Z,59.20
2018-06-23T13:51:01.884Z,60.20
2018-06-23T13:53:36.622Z,61.80
2018-06-23T13:58:45.611Z,61.80
2018-06-23T14:01:20.408Z,61.20
2018-06-23T14:03:56.218Z,62.20
2018-06-23T14:06:30.920Z,61.20
2018-06-23T14:09:08.896Z,61.80
2018-06-23T14:11:43.622Z,62.70
2018-06-23T14:14:18.427Z,61.00
2018-06-23T14:16:53.140Z,60.20
2018-06-23T14:19:27.903Z,60.90
2018-06-23T14:22:02.683Z,61.40
2018-06-23T14:24:37.526Z,63.40
2018-06-23T14:27:12.666Z,63.50
2018-06-23T14:29:48.483Z,61.60
2018-06-23T14:32:24.199Z,61.80
2018-06-23T14:34:59.124Z,62.00
2018-06-23T14:37:34.208Z,62.30
2018-06-23T14:40:09.054Z,62.40
2018-06-23T14:42:43.953Z,63.30
2018-06-23T14:45:18.727Z,63.50
2018-06-23T14:50:28.742Z,63.80
2018-06-23T14:53:03.436Z,64.50
2018-06-23T14:55:38.235Z,64.10
2018-06-23T15:03:22.535Z,63.70
2018-06-23T15:05:58.411Z,63.70
2018-06-23T15:08:44.117Z,64.20
2018-06-23T15:11:29.944Z,64.70
2018-06-23T15:19:13.159Z,64.40
2018-06-23T15:21:48.942Z,65.30
2018-06-23T15:24:23.628Z,65.90
2018-06-23T15:26:59.404Z,66.30
2018-06-23T15:29:34.099Z,66.10
2018-06-23T15:32:09.855Z,66.20
2018-06-23T15:34:44.611Z,66.30
2018-06-23T15:37:20.348Z,65.90
2018-06-23T15:39:55.040Z,66.60
2018-06-23T15:42:29.770Z,65.70
2018-06-23T15:45:04.575Z,65.60
2018-06-23T15:47:39.343Z,66.30
2018-06-23T15:50:14.085Z,66.60
2018-06-23T15:52:48.819Z,66.80
2018-06-23T15:55:23.499Z,68.10
2018-06-23T15:57:58.236Z,68.70
2018-06-23T16:00:32.955Z,68.80
2018-06-23T16:03:07.706Z,68.50
2018-06-23T16:05:42.475Z,70.60
2018-06-23T16:08:17.239Z,71.80
2018-06-23T16:10:51.956Z,73.10
2018-06-23T16:13:26.687Z,75.40
2018-06-23T16:16:01.420Z,77.10
2018-06-23T16:18:36.190Z,78.40
2018-06-23T16:21:10.945Z,79.20
2018-06-23T16:23:45.716Z,80.90
2018-06-23T16:26:20.414Z,83.10
2018-06-23T16:28:55.175Z,85.80
2018-06-23T16:31:29.842Z,88.30
2018-06-23T16:34:04.590Z,90.40
2018-06-23T16:36:39.720Z,91.60
2018-06-23T16:39:14.491Z,92.40
2018-06-23T16:41:49.222Z,93.70
2018-06-23T16:44:24.101Z,94.40
2018-06-23T16:46:58.831Z,94.90
2018-06-23T16:49:33.522Z,95.60
2018-06-23T16:52:08.248Z,96.10
2018-06-23T16:57:18.228Z,91.50
2018-06-23T16:59:52.992Z,90.50
2018-06-23T17:02:28.923Z,90.10
2018-06-23T17:05:03.672Z,90.00
2018-06-23T17:07:38.402Z,88.80
2018-06-23T17:10:13.160Z,88.40
2018-06-23T17:12:48.904Z,87.50
2018-06-23T17:15:23.624Z,87.00
2018-06-23T17:17:58.370Z,86.30
2018-06-23T17:20:34.168Z,84.90
2018-06-23T17:23:09.348Z,86.50
2018-06-23T17:25:44.134Z,88.70
2018-06-23T17:28:18.824Z,90.00
2018-06-23T17:30:53.571Z,90.20
2018-06-23T17:33:28.491Z,90.10
2018-06-23T17:36:04.211Z,90.20
2018-06-23T17:38:38.939Z,90.60
2018-06-23T17:43:47.904Z,91.60
2018-06-23T17:46:22.709Z,91.80
2018-06-23T17:51:31.777Z,90.70
2018-06-23T17:54:06.530Z,90.60
2018-06-23T17:56:41.345Z,90.70
2018-06-23T17:59:16.100Z,91.00
2018-06-23T18:01:50.906Z,90.10
2018-06-23T18:04:25.624Z,90.00
2018-06-23T18:07:00.363Z,90.70
2018-06-23T18:09:35.063Z,90.50
2018-06-23T18:12:10.883Z,90.00
2018-06-23T18:14:45.716Z,89.20
2018-06-23T18:19:54.672Z,89.30
2018-06-23T18:22:30.505Z,89.90
2018-06-23T18:27:39.888Z,90.30
2018-06-23T18:30:14.601Z,90.60
2018-06-23T18:32:49.348Z,91.10
2018-06-23T18:35:24.045Z,91.00
2018-06-23T18:37:58.808Z,91.20
2018-06-23T18:40:33.532Z,91.70
2018-06-23T18:43:08.282Z,93.30
2018-06-23T18:45:43.104Z,94.70
2018-06-23T18:48:18.020Z,95.70
2018-06-23T18:50:52.872Z,96.10
2018-06-23T18:53:28.750Z,96.40
2018-06-23T18:56:04.129Z,96.20
2018-06-23T18:58:40.010Z,96.40
2018-06-23T19:01:14.949Z,96.70
2018-06-23T19:03:49.808Z,96.80
2018-06-23T19:06:24.670Z,97.20
2018-06-23T19:08:59.541Z,97.40
2018-06-23T19:11:33.920Z,97.60
2018-06-23T19:14:08.560Z,97.20
2018-06-23T19:16:43.251Z,97.40
2018-06-23T19:19:17.451Z,97.70
2018-06-23T19:21:51.628Z,97.80
2018-06-23T19:24:26.467Z,97.90
2018-06-23T19:27:00.637Z,98.20
2018-06-23T19:29:35.820Z,98.70
2018-06-23T19:32:10.522Z,98.70
2018-06-23T19:34:44.715Z,98.60
2018-06-23T19:37:19.414Z,98.90
2018-06-23T19:39:54.161Z,99.20
2018-06-23T19:42:29.914Z,99.60
2018-06-23T19:45:04.776Z,99.60
2018-06-23T19:47:38.934Z,99.90
2018-06-23T19:50:14.660Z,99.90
2018-06-23T19:55:23.088Z,99.90
2018-06-23T19:57:57.232Z,99.90
2018-06-23T20:00:32.431Z,99.90
2018-06-23T20:03:06.582Z,99.90
2018-06-23T20:05:41.324Z,99.90
2018-06-23T20:08:17.035Z,99.90
2018-06-23T20:10:51.435Z,99.70
2018-06-23T20:13:25.608Z,99.90
2018-06-23T20:18:34.408Z,99.90
2018-06-23T20:21:08.683Z,99.90
2018-06-23T20:23:43.436Z,99.90
2018-06-23T20:26:17.684Z,99.90
2018-06-23T20:28:52.462Z,99.90
2018-06-23T20:31:28.216Z,99.90
2018-06-23T20:34:03.275Z,99.90
2018-06-23T20:36:37.520Z,99.90
2018-06-23T20:39:19.443Z,99.90
2018-06-23T20:41:53.688Z,99.90
2018-06-23T20:44:28.387Z,99.90
2018-06-23T20:47:03.662Z,99.90
2018-06-23T20:49:37.811Z,99.90
2018-06-23T20:54:50.063Z,99.90
2018-06-23T20:57:25.142Z,99.90
2018-06-23T21:00:16.793Z,99.90
2018-06-23T21:06:07.060Z,99.90
2018-06-23T21:08:46.790Z,99.90
2018-06-23T21:11:25.708Z,99.90
2018-06-23T21:17:06.444Z,99.90
2018-06-23T21:19:42.750Z,99.90
2018-06-23T21:22:19.906Z,99.90
2018-06-23T21:25:06.495Z,99.90
2018-06-23T21:30:15.755Z,99.90
2018-06-23T21:32:53.024Z,99.90
2018-06-23T21:38:05.531Z,99.90
2018-06-23T21:40:43.211Z,99.90
2018-06-23T21:43:19.611Z,99.90
2018-06-23T21:48:27.942Z,99.90
2018-06-23T21:51:03.171Z,99.90
2018-06-23T21:53:38.305Z,99.90
2018-06-23T21:56:13.795Z,99.90
2018-06-23T21:58:49.080Z,99.90
2018-06-23T22:01:23.419Z,99.90
2018-06-23T22:04:01.726Z,99.90
2018-06-23T22:06:35.819Z,99.90
2018-06-23T22:09:12.499Z,99.90
2018-06-23T22:14:25.331Z,99.90
2018-06-23T22:19:37.888Z,99.90
2018-06-23T22:22:12.643Z,99.90
2018-06-23T22:24:46.807Z,99.90
2018-06-23T22:27:20.972Z,99.90
2018-06-23T22:29:55.187Z,99.90
2018-06-23T22:32:30.355Z,99.90
2018-06-23T22:35:04.649Z,99.90
2018-06-23T22:37:39.766Z,99.90
2018-06-23T22:40:14.985Z,99.90
2018-06-23T22:42:49.179Z,99.90
2018-06-23T22:45:23.401Z,99.90
2018-06-23T22:47:57.519Z,99.90
2018-06-23T22:50:31.703Z,99.90
2018-06-23T22:53:06.411Z,99.90
2018-06-23T22:55:40.615Z,99.90
2018-06-23T22:58:14.815Z,99.90
2018-06-23T23:00:49.023Z,99.90
2018-06-23T23:03:23.204Z,99.90
2018-06-23T23:05:57.465Z,99.90
2018-06-23T23:08:32.079Z,99.90
2018-06-23T23:11:06.297Z,99.90
2018-06-23T23:13:41.480Z,99.90
2018-06-23T23:16:15.674Z,99.90
2018-06-23T23:18:49.798Z,99.90
2018-06-23T23:21:25.011Z,99.90
2018-06-23T23:23:59.328Z,99.90
2018-06-23T23:26:33.555Z,99.90
2018-06-23T23:31:41.776Z,99.90
2018-06-23T23:34:15.932Z,99.90
2018-06-23T23:36:51.116Z,99.90
2018-06-23T23:39:26.301Z,99.90
2018-06-23T23:42:00.552Z,99.90
2018-06-23T23:44:34.731Z,99.90
2018-06-23T23:47:09.981Z,99.90
2018-06-23T23:49:44.115Z,99.90
2018-06-23T23:52:19.315Z,99.90
2018-06-23T23:54:53.497Z,99.90
